createdAt,value
2019-05-09T00:00:30.230Z,66.00
2019-05-09T00:02:39.219Z,65.80
2019-05-09T00:04:45.192Z,65.90
2019-05-09T00:06:51.064Z,65.80
2019-05-09T00:08:55.824Z,65.90
2019-05-09T00:11:00.748Z,65.80
2019-05-09T00:13:05.674Z,65.90
2019-05-09T00:15:10.413Z,65.70
2019-05-09T00:17:15.395Z,65.80
2019-05-09T00:19:20.608Z,65.70
2019-05-09T00:21:33.252Z,66.20
2019-05-09T00:23:43.584Z,65.60
2019-05-09T00:25:47.774Z,65.70
2019-05-09T00:27:55.320Z,65.80
2019-05-09T00:30:00.431Z,65.70
2019-05-09T00:32:10.137Z,65.80
2019-05-09T00:34:23.420Z,65.80
2019-05-09T00:36:28.604Z,65.80
2019-05-09T00:38:43.336Z,65.80
2019-05-09T00:40:56.036Z,65.80
2019-05-09T00:42:54.999Z,65.90
2019-05-09T00:45:01.373Z,65.80
2019-05-09T00:47:07.933Z,65.70
2019-05-09T00:49:14.254Z,65.70
2019-05-09T00:51:19.313Z,65.80
2019-05-09T00:53:27.054Z,65.80
2019-05-09T00:55:33.283Z,66.00
2019-05-09T00:57:38.330Z,65.90
2019-05-09T00:59:44.606Z,65.80
2019-05-09T01:01:49.631Z,65.90
2019-05-09T01:03:55.882Z,65.90
2019-05-09T01:06:04.193Z,65.90
2019-05-09T01:08:13.746Z,65.90
2019-05-09T01:10:18.881Z,65.90
2019-05-09T01:12:23.779Z,65.90
2019-05-09T01:14:28.709Z,65.80
2019-05-09T01:16:33.710Z,65.90
2019-05-09T01:18:38.468Z,66.00
2019-05-09T01:20:44.068Z,65.80
2019-05-09T01:22:49.145Z,66.00
2019-05-09T01:24:56.795Z,65.80
2019-05-09T01:27:03.579Z,65.80
2019-05-09T01:29:08.117Z,65.80
2019-05-09T01:31:13.391Z,65.90
2019-05-09T01:33:20.104Z,65.90
2019-05-09T01:35:26.553Z,65.90
2019-05-09T01:37:34.030Z,65.80
2019-05-09T01:39:37.826Z,65.70
2019-05-09T01:41:43.633Z,65.70
2019-05-09T01:43:48.501Z,65.80
2019-05-09T01:45:54.088Z,65.60
2019-05-09T01:47:59.034Z,65.90
2019-05-09T01:50:05.218Z,65.90
2019-05-09T01:52:13.575Z,65.90
2019-05-09T01:54:19.832Z,65.90
2019-05-09T01:56:25.531Z,65.90
2019-05-09T01:58:34.305Z,66.00
2019-05-09T02:00:40.377Z,65.90
2019-05-09T02:02:45.236Z,66.00
2019-05-09T02:04:50.117Z,66.00
2019-05-09T02:06:55.027Z,65.80
2019-05-09T02:09:00.177Z,65.60
2019-05-09T02:11:05.398Z,65.70
2019-05-09T02:13:13.726Z,65.60
2019-05-09T02:15:23.679Z,65.50
2019-05-09T02:17:39.792Z,65.60
2019-05-09T02:19:46.746Z,65.50
2019-05-09T02:22:29.683Z,65.50
2019-05-09T02:24:35.295Z,65.50
2019-05-09T02:26:40.202Z,65.40
2019-05-09T02:28:48.454Z,65.40
2019-05-09T02:30:55.091Z,65.40
2019-05-09T02:33:00.247Z,65.40
2019-05-09T02:35:09.468Z,65.30
2019-05-09T02:37:18.550Z,65.20
2019-05-09T02:39:22.285Z,65.30
2019-05-09T02:41:28.686Z,65.30
2019-05-09T02:43:34.113Z,65.40
2019-05-09T02:45:52.313Z,65.40
2019-05-09T02:47:54.328Z,65.60
2019-05-09T02:50:00.162Z,65.60
2019-05-09T02:52:08.779Z,65.60
2019-05-09T02:54:13.499Z,65.70
2019-05-09T02:56:20.106Z,65.70
2019-05-09T02:58:28.183Z,65.60
2019-05-09T03:00:35.702Z,65.60
2019-05-09T03:02:42.958Z,65.70
2019-05-09T03:04:49.619Z,65.70
2019-05-09T03:06:55.248Z,65.60
2019-05-09T03:09:00.691Z,65.60
2019-05-09T03:11:09.735Z,65.60
2019-05-09T03:13:13.982Z,65.70
2019-05-09T03:15:19.708Z,65.70
2019-05-09T03:17:29.763Z,65.50
2019-05-09T03:19:34.797Z,65.40
2019-05-09T03:21:59.926Z,65.60
2019-05-09T03:24:05.194Z,65.40
2019-05-09T03:26:13.103Z,66.20
2019-05-09T03:28:23.682Z,65.40
2019-05-09T03:30:42.233Z,65.50
2019-05-09T03:32:53.062Z,65.40
2019-05-09T03:34:58.112Z,65.60
2019-05-09T03:37:03.055Z,65.60
2019-05-09T03:39:12.166Z,65.60
2019-05-09T03:41:17.730Z,65.50
2019-05-09T03:43:22.895Z,65.70
2019-05-09T03:45:27.662Z,65.60
2019-05-09T03:47:34.098Z,65.50
2019-05-09T03:49:39.148Z,65.40
2019-05-09T03:51:48.233Z,66.60
2019-05-09T03:53:53.068Z,65.70
2019-05-09T03:55:59.662Z,65.60
2019-05-09T03:58:07.481Z,65.60
2019-05-09T04:00:12.996Z,65.70
2019-05-09T04:02:19.860Z,65.70
2019-05-09T04:04:28.213Z,65.70
2019-05-09T04:06:33.278Z,65.80
2019-05-09T04:08:38.110Z,66.10
2019-05-09T04:10:43.442Z,66.10
2019-05-09T04:12:55.830Z,66.10
2019-05-09T04:14:58.340Z,66.10
2019-05-09T04:17:04.276Z,66.10
2019-05-09T04:19:09.986Z,66.20
2019-05-09T04:21:17.443Z,66.20
2019-05-09T04:23:27.569Z,66.20
2019-05-09T04:25:34.467Z,66.20
2019-05-09T04:27:41.603Z,66.20
2019-05-09T04:29:48.430Z,66.20
2019-05-09T04:31:54.211Z,66.10
2019-05-09T04:34:00.140Z,66.00
2019-05-09T04:36:05.050Z,66.20
2019-05-09T04:38:10.722Z,66.10
2019-05-09T04:40:19.614Z,66.20
2019-05-09T04:42:24.740Z,66.20
2019-05-09T04:44:37.576Z,66.20
2019-05-09T04:46:42.935Z,66.20
2019-05-09T04:48:48.145Z,66.30
2019-05-09T04:50:59.298Z,66.30
2019-05-09T04:53:04.634Z,66.50
2019-05-09T04:55:12.639Z,66.40
2019-05-09T04:57:20.901Z,66.30
2019-05-09T04:59:28.530Z,66.30
2019-05-09T05:01:52.712Z,66.50
2019-05-09T05:03:59.734Z,66.60
2019-05-09T05:06:07.689Z,66.60
2019-05-09T05:08:18.177Z,66.80
2019-05-09T05:10:27.347Z,66.80
2019-05-09T05:12:33.124Z,66.80
2019-05-09T05:14:38.627Z,66.90
2019-05-09T05:16:43.427Z,67.20
2019-05-09T05:18:50.914Z,67.30
2019-05-09T05:20:57.600Z,67.20
2019-05-09T05:23:04.814Z,67.20
2019-05-09T05:25:09.687Z,67.30
2019-05-09T05:27:14.440Z,67.40
2019-05-09T05:29:22.475Z,67.60
2019-05-09T05:31:28.496Z,67.80
2019-05-09T05:33:38.380Z,68.10
2019-05-09T05:35:44.819Z,67.70
2019-05-09T05:37:49.822Z,68.00
2019-05-09T05:39:54.603Z,68.20
2019-05-09T05:41:59.341Z,68.30
2019-05-09T05:44:04.129Z,68.50
2019-05-09T05:46:10.516Z,68.50
2019-05-09T05:48:23.149Z,68.50
2019-05-09T05:50:28.214Z,68.60
2019-05-09T05:52:33.189Z,69.40
2019-05-09T05:54:38.906Z,68.50
2019-05-09T05:56:43.702Z,68.70
2019-05-09T05:58:49.035Z,68.80
2019-05-09T06:00:53.855Z,68.70
2019-05-09T06:02:58.930Z,68.80
2019-05-09T06:05:05.342Z,68.50
2019-05-09T06:07:10.174Z,68.80
2019-05-09T06:09:14.926Z,68.80
2019-05-09T06:11:19.705Z,68.90
2019-05-09T06:13:24.444Z,68.70
2019-05-09T06:15:29.134Z,68.80
2019-05-09T06:17:33.901Z,68.60
2019-05-09T06:19:38.662Z,68.70
2019-05-09T06:21:45.088Z,68.80
2019-05-09T06:23:49.844Z,68.80
2019-05-09T06:25:54.610Z,70.00
2019-05-09T06:28:04.012Z,69.00
2019-05-09T06:30:08.856Z,68.80
2019-05-09T06:32:13.676Z,69.00
2019-05-09T06:34:19.519Z,69.10
2019-05-09T06:36:24.286Z,69.20
2019-05-09T06:38:29.011Z,68.70
2019-05-09T06:40:38.303Z,68.90
2019-05-09T06:42:42.839Z,68.10
2019-05-09T06:44:55.469Z,68.70
2019-05-09T06:47:10.680Z,68.50
2019-05-09T06:49:27.662Z,68.30
2019-05-09T06:51:23.533Z,68.00
2019-05-09T06:53:28.271Z,67.90
2019-05-09T06:55:33.057Z,67.10
2019-05-09T06:57:42.180Z,67.60
2019-05-09T06:59:44.147Z,66.90
2019-05-09T07:01:50.556Z,67.60
2019-05-09T07:03:59.934Z,67.60
2019-05-09T07:06:08.466Z,67.60
2019-05-09T07:08:18.253Z,67.70
2019-05-09T07:10:22.789Z,67.70
2019-05-09T07:12:28.576Z,67.80
2019-05-09T07:14:40.994Z,67.60
2019-05-09T07:16:43.011Z,67.10
2019-05-09T07:18:48.449Z,66.80
2019-05-09T07:20:53.278Z,66.90
2019-05-09T07:22:58.412Z,66.50
2019-05-09T07:25:10.224Z,66.60
2019-05-09T07:27:11.967Z,65.80
2019-05-09T07:29:17.833Z,65.30
2019-05-09T07:31:29.706Z,64.70
2019-05-09T07:33:53.128Z,64.40
2019-05-09T07:35:58.214Z,64.50
2019-05-09T07:38:02.971Z,64.10
2019-05-09T07:40:08.390Z,63.80
2019-05-09T07:42:18.004Z,63.50
2019-05-09T07:44:22.988Z,63.10
2019-05-09T07:46:29.431Z,62.60
2019-05-09T07:48:34.146Z,63.40
2019-05-09T07:50:39.099Z,63.50
2019-05-09T07:52:45.370Z,63.40
2019-05-09T07:54:51.348Z,63.70
2019-05-09T07:56:57.993Z,64.10
2019-05-09T07:59:02.525Z,63.70
2019-05-09T08:01:08.646Z,63.20
2019-05-09T08:03:13.643Z,63.40
2019-05-09T08:05:27.962Z,63.50
2019-05-09T08:07:37.885Z,63.50
2019-05-09T08:09:42.020Z,63.60
2019-05-09T08:11:48.294Z,63.10
2019-05-09T08:13:53.207Z,63.10
2019-05-09T08:16:00.884Z,63.10
2019-05-09T08:18:08.071Z,62.80
2019-05-09T08:20:13.817Z,62.60
2019-05-09T08:22:24.645Z,62.40
2019-05-09T08:24:24.932Z,62.60
2019-05-09T08:26:30.191Z,62.10
2019-05-09T08:28:34.984Z,62.30
2019-05-09T08:30:40.527Z,62.70
2019-05-09T08:32:47.995Z,62.50
2019-05-09T08:34:51.821Z,62.70
2019-05-09T08:36:58.021Z,62.50
2019-05-09T08:39:04.684Z,62.00
2019-05-09T08:41:10.662Z,62.50
2019-05-09T08:43:17.881Z,62.20
2019-05-09T08:45:27.524Z,62.50
2019-05-09T08:47:28.192Z,62.40
2019-05-09T08:49:34.600Z,61.80
2019-05-09T08:52:06.788Z,62.10
2019-05-09T08:53:53.580Z,62.20
2019-05-09T08:55:58.375Z,62.00
2019-05-09T08:58:03.127Z,62.30
2019-05-09T09:00:09.133Z,61.70
2019-05-09T09:02:18.480Z,62.60
2019-05-09T09:04:20.482Z,62.60
2019-05-09T09:06:27.703Z,62.20
2019-05-09T09:08:31.598Z,62.50
2019-05-09T09:10:39.103Z,62.10
2019-05-09T09:12:43.981Z,61.70
2019-05-09T09:14:48.744Z,61.50
2019-05-09T09:16:53.543Z,61.50
2019-05-09T09:18:58.594Z,61.00
2019-05-09T09:21:03.447Z,61.10
2019-05-09T09:23:09.141Z,60.70
2019-05-09T09:25:14.248Z,60.10
2019-05-09T09:27:18.994Z,60.40
2019-05-09T09:29:23.734Z,60.40
2019-05-09T09:31:28.644Z,60.20
2019-05-09T09:33:33.480Z,59.90
2019-05-09T09:35:39.897Z,59.80
2019-05-09T09:37:48.868Z,59.30
2019-05-09T09:39:51.105Z,59.80
2019-05-09T09:41:55.860Z,59.90
2019-05-09T09:44:00.575Z,59.50
2019-05-09T09:46:13.456Z,59.70
2019-05-09T09:48:12.407Z,59.80
2019-05-09T09:50:17.705Z,59.70
2019-05-09T09:52:22.642Z,59.60
2019-05-09T09:54:30.212Z,59.70
2019-05-09T09:56:38.466Z,59.70
2019-05-09T09:58:44.111Z,59.60
2019-05-09T10:00:58.397Z,59.70
2019-05-09T10:03:02.767Z,59.40
2019-05-09T10:05:07.887Z,59.50
2019-05-09T10:07:12.866Z,59.50
2019-05-09T10:09:20.435Z,59.50
2019-05-09T10:11:25.173Z,59.60
2019-05-09T10:13:29.883Z,59.60
2019-05-09T10:15:47.405Z,59.50
2019-05-09T10:17:53.347Z,59.30
2019-05-09T10:19:59.702Z,59.30
2019-05-09T10:22:08.623Z,58.90
2019-05-09T10:24:13.375Z,59.20
2019-05-09T10:26:18.141Z,59.30
2019-05-09T10:28:22.910Z,59.50
2019-05-09T10:30:32.569Z,59.10
2019-05-09T10:32:40.407Z,58.80
2019-05-09T10:34:45.182Z,59.00
2019-05-09T10:36:49.868Z,59.30
2019-05-09T10:38:54.650Z,59.40
2019-05-09T10:41:01.584Z,59.30
2019-05-09T10:43:09.100Z,59.00
2019-05-09T10:45:40.906Z,59.10
2019-05-09T10:47:43.896Z,59.40
2019-05-09T10:49:48.878Z,59.40
2019-05-09T10:51:53.762Z,59.30
2019-05-09T10:53:58.985Z,59.50
2019-05-09T10:56:03.816Z,59.60
2019-05-09T10:58:08.578Z,59.40
2019-05-09T11:00:13.435Z,59.40
2019-05-09T11:02:18.199Z,58.90
2019-05-09T11:04:22.980Z,59.00
2019-05-09T11:06:28.737Z,58.70
2019-05-09T11:08:33.834Z,58.90
2019-05-09T11:10:39.885Z,58.50
2019-05-09T11:12:44.782Z,58.70
2019-05-09T11:14:49.528Z,58.70
2019-05-09T11:17:07.813Z,58.70
2019-05-09T11:19:01.173Z,58.40
2019-05-09T11:21:08.358Z,58.40
2019-05-09T11:23:13.051Z,57.80
2019-05-09T11:25:17.844Z,58.30
2019-05-09T11:27:28.125Z,58.50
2019-05-09T11:29:33.151Z,58.60
2019-05-09T11:31:38.550Z,58.50
2019-05-09T11:33:43.378Z,58.50
2019-05-09T11:35:48.170Z,58.40
2019-05-09T11:37:53.016Z,58.70
2019-05-09T11:39:58.125Z,58.30
2019-05-09T11:42:05.811Z,58.10
2019-05-09T11:44:10.487Z,58.00
2019-05-09T11:46:17.735Z,58.30
2019-05-09T11:48:21.646Z,58.20
2019-05-09T11:50:26.477Z,58.00
2019-05-09T11:52:31.225Z,58.10
2019-05-09T11:54:38.928Z,58.30
2019-05-09T11:56:43.800Z,58.00
2019-05-09T11:58:51.829Z,57.80
2019-05-09T12:00:56.652Z,57.60
2019-05-09T12:03:01.416Z,57.90
2019-05-09T12:05:08.512Z,57.60
2019-05-09T12:07:12.774Z,57.60
2019-05-09T12:09:17.527Z,57.90
2019-05-09T12:11:22.360Z,57.80
2019-05-09T12:13:27.070Z,57.50
2019-05-09T12:15:31.817Z,57.50
2019-05-09T12:17:53.169Z,57.30
2019-05-09T12:19:42.972Z,57.10
2019-05-09T12:21:48.454Z,57.00
2019-05-09T12:23:53.357Z,57.40
2019-05-09T12:25:58.276Z,57.30
2019-05-09T12:28:03.095Z,57.40
2019-05-09T12:30:08.177Z,57.50
2019-05-09T12:32:18.415Z,57.20
2019-05-09T12:34:22.237Z,57.00
2019-05-09T12:36:28.663Z,56.60
2019-05-09T12:38:33.646Z,56.70
2019-05-09T12:40:39.013Z,56.30
2019-05-09T12:42:49.648Z,56.10
2019-05-09T12:44:53.181Z,56.00
2019-05-09T12:46:58.260Z,56.10
2019-05-09T12:49:08.729Z,56.30
2019-05-09T12:51:13.651Z,56.10
2019-05-09T12:53:19.058Z,55.90
2019-05-09T12:55:23.786Z,55.90
2019-05-09T12:57:29.014Z,55.70
2019-05-09T12:59:46.372Z,55.60
2019-05-09T13:01:41.371Z,55.70
2019-05-09T13:03:48.433Z,55.20
2019-05-09T13:05:53.019Z,55.40
2019-05-09T13:07:59.418Z,55.20
2019-05-09T13:10:08.962Z,54.90
2019-05-09T13:12:13.930Z,54.60
2019-05-09T13:14:20.304Z,54.60
2019-05-09T13:16:44.265Z,54.50
2019-05-09T13:18:54.480Z,54.10
2019-05-09T13:21:02.115Z,54.40
2019-05-09T13:23:08.876Z,55.00
2019-05-09T13:25:13.354Z,54.80
2019-05-09T13:27:18.935Z,55.10
2019-05-09T13:29:25.083Z,55.00
2019-05-09T13:31:34.713Z,54.50
2019-05-09T13:33:41.297Z,55.10
2019-05-09T13:35:45.521Z,55.20
2019-05-09T13:37:50.358Z,55.30
2019-05-09T13:39:59.990Z,55.20
2019-05-09T13:42:04.877Z,55.10
2019-05-09T13:44:13.467Z,54.80
2019-05-09T13:46:17.939Z,54.80
2019-05-09T13:48:32.620Z,54.70
2019-05-09T13:50:31.388Z,54.90
2019-05-09T13:52:38.009Z,54.30
2019-05-09T13:54:45.318Z,54.20
2019-05-09T13:56:56.571Z,54.40
2019-05-09T13:58:58.054Z,54.50
2019-05-09T14:01:03.812Z,54.50
2019-05-09T14:03:08.857Z,54.20
2019-05-09T14:05:15.045Z,53.90
2019-05-09T14:07:19.827Z,54.00
2019-05-09T14:09:24.500Z,53.00
2019-05-09T14:11:30.909Z,53.20
2019-05-09T14:13:38.301Z,53.60
2019-05-09T14:15:44.933Z,53.30
2019-05-09T14:17:53.686Z,53.30
2019-05-09T14:19:56.724Z,53.50
2019-05-09T14:22:01.679Z,53.70
2019-05-09T14:24:12.246Z,53.90
2019-05-09T14:26:12.880Z,54.10
2019-05-09T14:28:18.713Z,54.30
2019-05-09T14:30:23.484Z,54.30
2019-05-09T14:32:31.156Z,54.50
2019-05-09T14:34:34.646Z,54.70
2019-05-09T14:36:45.000Z,54.90
2019-05-09T14:38:48.585Z,54.80
2019-05-09T14:40:56.385Z,55.00
2019-05-09T14:43:01.150Z,55.20
2019-05-09T14:45:08.413Z,55.30
2019-05-09T14:47:13.312Z,54.80
2019-05-09T14:49:19.078Z,54.90
2019-05-09T14:51:23.874Z,54.80
2019-05-09T14:53:28.635Z,54.60
2019-05-09T14:55:33.361Z,54.10
2019-05-09T14:57:38.487Z,54.00
2019-05-09T14:59:43.234Z,54.10
2019-05-09T15:01:49.577Z,53.90
2019-05-09T15:03:58.521Z,53.80
2019-05-09T15:06:03.249Z,53.80
2019-05-09T15:08:07.957Z,53.80
2019-05-09T15:10:12.909Z,53.80
2019-05-09T15:12:20.518Z,53.90
2019-05-09T15:14:25.310Z,53.90
2019-05-09T15:16:31.548Z,53.90
2019-05-09T15:18:38.634Z,53.90
2019-05-09T15:20:43.446Z,53.90
2019-05-09T15:22:48.125Z,53.90
2019-05-09T15:24:53.018Z,54.00
2019-05-09T15:26:58.098Z,53.90
2019-05-09T15:29:02.936Z,53.80
2019-05-09T15:31:10.766Z,53.80
2019-05-09T15:33:17.589Z,53.80
2019-05-09T15:35:21.927Z,53.70
2019-05-09T15:37:28.622Z,53.60
2019-05-09T15:39:33.104Z,53.40
2019-05-09T15:41:38.666Z,53.70
2019-05-09T15:43:43.620Z,53.80
2019-05-09T15:45:50.027Z,54.00
2019-05-09T15:47:54.777Z,54.10
2019-05-09T15:50:15.488Z,53.80
2019-05-09T15:52:07.473Z,53.80
2019-05-09T15:54:12.934Z,53.80
2019-05-09T15:56:18.942Z,53.90
2019-05-09T15:58:23.963Z,53.70
2019-05-09T16:00:28.707Z,53.60
2019-05-09T16:02:35.237Z,53.70
2019-05-09T16:04:42.848Z,53.60
2019-05-09T16:06:50.088Z,53.50
2019-05-09T16:08:54.052Z,53.80
2019-05-09T16:10:59.217Z,53.60
2019-05-09T16:13:08.165Z,53.90
2019-05-09T16:15:12.982Z,54.00
2019-05-09T16:17:19.104Z,54.10
2019-05-09T16:19:25.172Z,54.20
2019-05-09T16:21:32.943Z,54.00
2019-05-09T16:23:38.084Z,53.80
2019-05-09T16:25:43.000Z,53.80
2019-05-09T16:27:52.846Z,53.20
2019-05-09T16:29:58.033Z,53.10
2019-05-09T16:32:04.009Z,53.10
2019-05-09T16:34:09.832Z,52.90
2019-05-09T16:36:14.663Z,53.20
2019-05-09T16:38:22.340Z,53.30
2019-05-09T16:40:30.112Z,53.40
2019-05-09T16:42:35.076Z,53.60
2019-05-09T16:44:41.874Z,53.80
2019-05-09T16:46:48.429Z,53.80
2019-05-09T16:48:53.457Z,53.90
2019-05-09T16:51:03.129Z,54.30
2019-05-09T16:53:04.626Z,54.40
2019-05-09T16:55:11.498Z,54.30
2019-05-09T16:57:18.218Z,54.30
2019-05-09T16:59:23.065Z,54.50
2019-05-09T17:01:28.521Z,54.40
2019-05-09T17:03:33.273Z,54.20
2019-05-09T17:05:38.047Z,54.30
2019-05-09T17:07:42.817Z,54.10
2019-05-09T17:09:51.344Z,54.00
2019-05-09T17:11:57.691Z,54.10
2019-05-09T17:14:02.590Z,54.00
2019-05-09T17:16:07.992Z,53.90
2019-05-09T17:18:18.630Z,54.60
2019-05-09T17:20:37.829Z,53.90
2019-05-09T17:23:10.972Z,53.60
2019-05-09T17:25:07.981Z,53.70
2019-05-09T17:27:12.893Z,53.50
2019-05-09T17:29:20.684Z,53.60
2019-05-09T17:31:27.560Z,53.70
2019-05-09T17:33:32.006Z,53.80
2019-05-09T17:35:49.283Z,53.90
2019-05-09T17:37:54.401Z,54.10
2019-05-09T17:39:59.246Z,54.10
2019-05-09T17:42:04.023Z,54.10
2019-05-09T17:44:08.756Z,54.90
2019-05-09T17:46:13.521Z,54.20
2019-05-09T17:48:21.280Z,54.40
2019-05-09T17:50:28.504Z,54.20
2019-05-09T17:52:32.510Z,54.20
2019-05-09T17:54:37.974Z,53.90
2019-05-09T17:56:48.240Z,53.90
2019-05-09T17:58:52.330Z,53.70
2019-05-09T18:00:57.667Z,53.70
2019-05-09T18:03:03.325Z,53.80
2019-05-09T18:05:08.351Z,54.20
2019-05-09T18:07:17.841Z,54.40
2019-05-09T18:09:22.182Z,54.40
2019-05-09T18:11:29.992Z,54.70
2019-05-09T18:13:35.022Z,54.90
2019-05-09T18:15:40.944Z,54.90
2019-05-09T18:17:47.711Z,55.10
2019-05-09T18:19:52.050Z,55.30
2019-05-09T18:21:57.876Z,55.20
2019-05-09T18:24:02.856Z,55.30
2019-05-09T18:26:07.980Z,55.30
2019-05-09T18:28:12.949Z,55.40
2019-05-09T18:30:17.794Z,55.50
2019-05-09T18:32:27.524Z,55.60
2019-05-09T18:34:32.408Z,55.70
2019-05-09T18:36:39.921Z,55.60
2019-05-09T18:38:44.973Z,56.10
2019-05-09T18:40:49.742Z,56.00
2019-05-09T18:42:54.973Z,56.10
2019-05-09T18:45:02.178Z,56.20
2019-05-09T18:47:07.839Z,56.30
2019-05-09T18:49:13.192Z,56.40
2019-05-09T18:51:17.961Z,56.60
2019-05-09T18:53:22.679Z,56.70
2019-05-09T18:55:27.419Z,56.70
2019-05-09T18:57:32.217Z,56.70
2019-05-09T18:59:37.082Z,56.70
2019-05-09T19:01:42.062Z,56.80
2019-05-09T19:03:46.815Z,56.90
2019-05-09T19:05:51.754Z,57.00
2019-05-09T19:07:56.501Z,57.10
2019-05-09T19:10:01.277Z,57.30
2019-05-09T19:12:07.181Z,57.30
2019-05-09T19:14:14.708Z,57.40
2019-05-09T19:16:27.456Z,57.40
2019-05-09T19:18:42.502Z,57.40
2019-05-09T19:20:48.905Z,57.50
2019-05-09T19:22:53.683Z,58.20
2019-05-09T19:24:58.458Z,57.30
2019-05-09T19:27:03.558Z,57.30
2019-05-09T19:29:08.923Z,57.40
2019-05-09T19:31:13.694Z,57.50
2019-05-09T19:33:19.174Z,57.40
2019-05-09T19:35:23.946Z,57.60
2019-05-09T19:37:29.693Z,57.50
2019-05-09T19:39:34.488Z,57.60
2019-05-09T19:41:39.177Z,57.60
2019-05-09T19:43:43.934Z,57.70
2019-05-09T19:45:48.698Z,57.80
2019-05-09T19:47:56.471Z,57.80
2019-05-09T19:50:01.525Z,57.80
2019-05-09T19:52:06.445Z,57.80
2019-05-09T19:54:11.206Z,57.90
2019-05-09T19:56:16.004Z,57.90
2019-05-09T19:58:20.752Z,57.80
2019-05-09T20:00:25.560Z,57.80
2019-05-09T20:02:30.337Z,57.80
2019-05-09T20:04:35.177Z,57.90
2019-05-09T20:06:39.970Z,57.90
2019-05-09T20:08:44.920Z,58.00
2019-05-09T20:11:09.016Z,57.90
2019-05-09T20:13:20.842Z,57.90
2019-05-09T20:15:29.393Z,57.80
2019-05-09T20:17:34.386Z,57.90
2019-05-09T20:19:39.404Z,57.90
2019-05-09T20:21:44.380Z,58.10
2019-05-09T20:23:50.164Z,58.00
2019-05-09T20:25:55.151Z,58.00
2019-05-09T20:28:00.119Z,58.00
2019-05-09T20:30:08.246Z,58.00
2019-05-09T20:32:13.024Z,58.00
2019-05-09T20:34:17.727Z,58.10
2019-05-09T20:36:25.666Z,58.10
2019-05-09T20:38:30.607Z,58.10
2019-05-09T20:40:39.999Z,58.10
2019-05-09T20:42:44.941Z,58.00
2019-05-09T20:44:49.894Z,58.10
2019-05-09T20:46:54.965Z,58.10
2019-05-09T20:49:00.002Z,58.20
2019-05-09T20:51:04.933Z,58.10
2019-05-09T20:53:10.211Z,58.30
2019-05-09T20:55:15.167Z,58.40
2019-05-09T20:57:20.189Z,58.50
2019-05-09T20:59:25.204Z,58.50
2019-05-09T21:01:30.072Z,58.60
2019-05-09T21:03:35.057Z,58.50
2019-05-09T21:05:40.275Z,58.50
2019-05-09T21:07:45.316Z,58.40
2019-05-09T21:09:50.368Z,58.40
2019-05-09T21:11:55.283Z,58.40
2019-05-09T21:14:00.359Z,58.40
2019-05-09T21:16:05.296Z,58.30
2019-05-09T21:18:10.423Z,58.20
2019-05-09T21:20:16.272Z,58.30
2019-05-09T21:22:21.383Z,58.30
2019-05-09T21:24:26.313Z,58.10
2019-05-09T21:26:31.313Z,58.20
2019-05-09T21:28:36.274Z,58.10
2019-05-09T21:30:41.228Z,58.10
2019-05-09T21:32:46.185Z,58.00
2019-05-09T21:34:50.945Z,58.00
2019-05-09T21:36:55.712Z,57.90
2019-05-09T21:39:00.487Z,57.90
2019-05-09T21:41:05.246Z,57.90
2019-05-09T21:43:09.945Z,57.90
2019-05-09T21:45:15.267Z,57.90
2019-05-09T21:47:20.027Z,57.90
2019-05-09T21:49:28.378Z,57.90
2019-05-09T21:51:33.216Z,57.90
2019-05-09T21:53:40.823Z,58.00
2019-05-09T21:55:44.394Z,58.00
2019-05-09T21:57:49.088Z,58.00
2019-05-09T21:59:53.785Z,57.80
2019-05-09T22:01:58.530Z,57.70
2019-05-09T22:04:03.406Z,57.80
2019-05-09T22:06:08.279Z,58.00
2019-05-09T22:08:13.120Z,58.00
2019-05-09T22:10:17.967Z,58.00
2019-05-09T22:12:22.861Z,58.00
2019-05-09T22:14:27.616Z,58.00
2019-05-09T22:16:32.462Z,58.00
2019-05-09T22:18:40.003Z,57.90
2019-05-09T22:20:44.786Z,58.10
2019-05-09T22:22:49.536Z,58.00
2019-05-09T22:24:54.390Z,57.90
2019-05-09T22:27:02.103Z,58.10
2019-05-09T22:29:07.404Z,58.10
2019-05-09T22:31:15.228Z,58.30
2019-05-09T22:33:19.942Z,58.40
2019-05-09T22:35:24.839Z,58.50
2019-05-09T22:37:29.588Z,58.50
2019-05-09T22:39:35.724Z,58.60
2019-05-09T22:41:40.478Z,58.60
2019-05-09T22:43:45.225Z,58.60
2019-05-09T22:45:50.011Z,58.80
2019-05-09T22:47:54.756Z,58.70
2019-05-09T22:49:59.460Z,58.60
2019-05-09T22:52:04.526Z,58.40
2019-05-09T22:54:12.597Z,58.40
2019-05-09T22:56:15.677Z,58.40
2019-05-09T22:58:23.192Z,58.50
2019-05-09T23:00:27.892Z,58.40
2019-05-09T23:02:35.276Z,58.40
2019-05-09T23:04:40.018Z,58.40
2019-05-09T23:06:44.781Z,58.50
2019-05-09T23:08:49.556Z,58.30
2019-05-09T23:10:54.308Z,58.40
2019-05-09T23:12:59.082Z,58.40
2019-05-09T23:15:04.141Z,58.40
2019-05-09T23:17:09.542Z,58.50
2019-05-09T23:19:14.286Z,58.50
2019-05-09T23:21:19.068Z,58.60
2019-05-09T23:23:29.187Z,58.60
2019-05-09T23:25:33.948Z,58.60
2019-05-09T23:27:41.738Z,58.60
2019-05-09T23:29:48.069Z,58.70
2019-05-09T23:31:55.034Z,58.70
2019-05-09T23:33:59.802Z,58.70
2019-05-09T23:36:04.692Z,58.80
2019-05-09T23:38:09.474Z,58.70
2019-05-09T23:40:14.248Z,59.50
2019-05-09T23:42:22.036Z,58.80
2019-05-09T23:44:26.790Z,58.60
2019-05-09T23:46:31.573Z,58.70
2019-05-09T23:48:36.308Z,58.70
2019-05-09T23:50:41.069Z,58.70
2019-05-09T23:52:45.765Z,58.80
2019-05-09T23:55:08.360Z,58.70
2019-05-09T23:57:31.036Z,58.70
2019-05-09T23:59:53.679Z,58.60
